sensor_id;sensor_type;location;lat;lon;timestamp;P1;durP1;ratioP1;P2;durP2;ratioP2
20731;SDS011;10527;52.124;5.196;2023-06-19T00:01:09;5.18;;;4.22;;
20731;SDS011;10527;52.124;5.196;2023-06-19T00:03:36;5.07;;;4.07;;
20731;SDS011;10527;52.124;5.196;2023-06-19T00:06:03;6.43;;;5.32;;
20731;SDS011;10527;52.124;5.196;2023-06-19T00:08:32;5.75;;;5.03;;
20731;SDS011;10527;52.124;5.196;2023-06-19T00:10:59;7.13;;;4.70;;
20731;SDS011;10527;52.124;5.196;2023-06-19T00:13:25;8.48;;;5.22;;
20731;SDS011;10527;52.124;5.196;2023-06-19T00:15:53;5.10;;;4.45;;
20731;SDS011;10527;52.124;5.196;2023-06-19T00:18:20;5.45;;;4.93;;
20731;SDS011;10527;52.124;5.196;2023-06-19T00:20:47;7.20;;;5.72;;
20731;SDS011;10527;52.124;5.196;2023-06-19T00:23:13;7.35;;;5.45;;
20731;SDS011;10527;52.124;5.196;2023-06-19T00:25:43;6.20;;;5.13;;
20731;SDS011;10527;52.124;5.196;2023-06-19T00:28:10;5.78;;;5.03;;
20731;SDS011;10527;52.124;5.196;2023-06-19T00:30:41;6.97;;;5.78;;
20731;SDS011;10527;52.124;5.196;2023-06-19T00:33:08;7.18;;;5.18;;
20731;SDS011;10527;52.124;5.196;2023-06-19T00:35:35;7.32;;;5.47;;
20731;SDS011;10527;52.124;5.196;2023-06-19T00:38:02;6.20;;;4.60;;
20731;SDS011;10527;52.124;5.196;2023-06-19T00:40:31;8.40;;;6.75;;
20731;SDS011;10527;52.124;5.196;2023-06-19T00:43:00;5.30;;;4.43;;
20731;SDS011;10527;52.124;5.196;2023-06-19T00:45:28;6.70;;;5.10;;
20731;SDS011;10527;52.124;5.196;2023-06-19T00:47:56;5.88;;;4.68;;
20731;SDS011;10527;52.124;5.196;2023-06-19T00:50:26;5.07;;;3.90;;
20731;SDS011;10527;52.124;5.196;2023-06-19T00:52:57;5.78;;;4.70;;
20731;SDS011;10527;52.124;5.196;2023-06-19T00:55:26;6.97;;;3.85;;
20731;SDS011;10527;52.124;5.196;2023-06-19T00:57:56;4.65;;;4.10;;
20731;SDS011;10527;52.124;5.196;2023-06-19T01:00:23;4.88;;;3.03;;
20731;SDS011;10527;52.124;5.196;2023-06-19T01:02:50;6.68;;;2.60;;
20731;SDS011;10527;52.124;5.196;2023-06-19T01:05:17;3.08;;;2.58;;
20731;SDS011;10527;52.124;5.196;2023-06-19T01:10:40;3.85;;;1.58;;
20731;SDS011;10527;52.124;5.196;2023-06-19T01:16:26;2.20;;;1.67;;
20731;SDS011;10527;52.124;5.196;2023-06-19T01:18:56;5.03;;;1.80;;
20731;SDS011;10527;52.124;5.196;2023-06-19T01:21:24;3.03;;;1.98;;
20731;SDS011;10527;52.124;5.196;2023-06-19T01:23:50;1.80;;;1.40;;
20731;SDS011;10527;52.124;5.196;2023-06-19T01:26:17;2.58;;;1.52;;
20731;SDS011;10527;52.124;5.196;2023-06-19T01:28:52;2.33;;;1.70;;
20731;SDS011;10527;52.124;5.196;2023-06-19T01:31:23;2.08;;;1.60;;
20731;SDS011;10527;52.124;5.196;2023-06-19T01:34:00;2.15;;;1.48;;
20731;SDS011;10527;52.124;5.196;2023-06-19T01:36:32;2.13;;;1.50;;
20731;SDS011;10527;52.124;5.196;2023-06-19T01:39:00;3.17;;;1.67;;
20731;SDS011;10527;52.124;5.196;2023-06-19T01:41:29;1.75;;;1.30;;
20731;SDS011;10527;52.124;5.196;2023-06-19T01:43:58;2.65;;;1.27;;
20731;SDS011;10527;52.124;5.196;2023-06-19T01:46:26;2.47;;;1.20;;
20731;SDS011;10527;52.124;5.196;2023-06-19T01:48:53;2.78;;;1.48;;
20731;SDS011;10527;52.124;5.196;2023-06-19T01:51:20;2.05;;;1.40;;
20731;SDS011;10527;52.124;5.196;2023-06-19T01:53:47;1.70;;;1.20;;
20731;SDS011;10527;52.124;5.196;2023-06-19T01:56:14;1.88;;;1.20;;
20731;SDS011;10527;52.124;5.196;2023-06-19T01:58:41;1.90;;;1.40;;
20731;SDS011;10527;52.124;5.196;2023-06-19T02:01:08;2.13;;;1.38;;
20731;SDS011;10527;52.124;5.196;2023-06-19T02:03:35;3.35;;;1.27;;
20731;SDS011;10527;52.124;5.196;2023-06-19T02:06:02;2.53;;;1.80;;
20731;SDS011;10527;52.124;5.196;2023-06-19T02:08:29;3.38;;;1.60;;
20731;SDS011;10527;52.124;5.196;2023-06-19T02:10:55;2.10;;;1.70;;
20731;SDS011;10527;52.124;5.196;2023-06-19T02:13:22;2.28;;;1.70;;
20731;SDS011;10527;52.124;5.196;2023-06-19T02:15:52;3.15;;;1.98;;
20731;SDS011;10527;52.124;5.196;2023-06-19T02:18:18;3.70;;;2.17;;
20731;SDS011;10527;52.124;5.196;2023-06-19T02:20:47;3.13;;;2.00;;
20731;SDS011;10527;52.124;5.196;2023-06-19T02:23:14;2.55;;;1.50;;
20731;SDS011;10527;52.124;5.196;2023-06-19T02:25:41;2.95;;;2.08;;
20731;SDS011;10527;52.124;5.196;2023-06-19T02:28:08;2.60;;;1.92;;
20731;SDS011;10527;52.124;5.196;2023-06-19T02:30:35;2.97;;;2.08;;
20731;SDS011;10527;52.124;5.196;2023-06-19T02:33:02;3.53;;;1.90;;
20731;SDS011;10527;52.124;5.196;2023-06-19T02:35:29;2.13;;;1.67;;
20731;SDS011;10527;52.124;5.196;2023-06-19T02:37:56;3.60;;;1.90;;
20731;SDS011;10527;52.124;5.196;2023-06-19T02:40:23;3.75;;;1.90;;
20731;SDS011;10527;52.124;5.196;2023-06-19T02:42:51;2.53;;;2.10;;
20731;SDS011;10527;52.124;5.196;2023-06-19T02:45:18;2.17;;;1.77;;
20731;SDS011;10527;52.124;5.196;2023-06-19T02:47:45;2.03;;;1.58;;
20731;SDS011;10527;52.124;5.196;2023-06-19T02:50:12;2.70;;;2.03;;
20731;SDS011;10527;52.124;5.196;2023-06-19T02:52:38;3.10;;;2.05;;
20731;SDS011;10527;52.124;5.196;2023-06-19T02:55:06;3.30;;;2.33;;
20731;SDS011;10527;52.124;5.196;2023-06-19T02:57:34;2.78;;;2.00;;
20731;SDS011;10527;52.124;5.196;2023-06-19T03:00:01;2.17;;;1.80;;
20731;SDS011;10527;52.124;5.196;2023-06-19T03:02:32;3.30;;;1.98;;
20731;SDS011;10527;52.124;5.196;2023-06-19T03:04:59;5.60;;;2.42;;
20731;SDS011;10527;52.124;5.196;2023-06-19T03:07:26;2.97;;;2.42;;
20731;SDS011;10527;52.124;5.196;2023-06-19T03:09:54;2.85;;;2.30;;
20731;SDS011;10527;52.124;5.196;2023-06-19T03:12:21;3.90;;;2.45;;
20731;SDS011;10527;52.124;5.196;2023-06-19T03:14:48;2.83;;;2.30;;
20731;SDS011;10527;52.124;5.196;2023-06-19T03:17:15;2.95;;;2.63;;
20731;SDS011;10527;52.124;5.196;2023-06-19T03:19:42;3.13;;;2.25;;
20731;SDS011;10527;52.124;5.196;2023-06-19T03:22:08;4.30;;;2.88;;
20731;SDS011;10527;52.124;5.196;2023-06-19T03:24:35;3.38;;;3.08;;
20731;SDS011;10527;52.124;5.196;2023-06-19T03:27:02;3.83;;;3.15;;
20731;SDS011;10527;52.124;5.196;2023-06-19T03:29:29;4.82;;;3.53;;
20731;SDS011;10527;52.124;5.196;2023-06-19T03:31:56;3.63;;;2.90;;
20731;SDS011;10527;52.124;5.196;2023-06-19T03:34:23;5.18;;;4.00;;
20731;SDS011;10527;52.124;5.196;2023-06-19T03:36:50;3.92;;;3.50;;
20731;SDS011;10527;52.124;5.196;2023-06-19T03:39:22;3.88;;;3.08;;
20731;SDS011;10527;52.124;5.196;2023-06-19T03:41:50;4.18;;;3.42;;
20731;SDS011;10527;52.124;5.196;2023-06-19T03:44:16;8.25;;;4.60;;
20731;SDS011;10527;52.124;5.196;2023-06-19T03:46:43;4.80;;;4.22;;
20731;SDS011;10527;52.124;5.196;2023-06-19T03:49:10;5.65;;;4.22;;
20731;SDS011;10527;52.124;5.196;2023-06-19T03:51:37;10.93;;;5.10;;
20731;SDS011;10527;52.124;5.196;2023-06-19T03:54:05;6.57;;;5.25;;
20731;SDS011;10527;52.124;5.196;2023-06-19T03:56:31;6.80;;;5.38;;
20731;SDS011;10527;52.124;5.196;2023-06-19T03:58:58;7.55;;;5.38;;
20731;SDS011;10527;52.124;5.196;2023-06-19T04:01:25;7.63;;;6.03;;
20731;SDS011;10527;52.124;5.196;2023-06-19T04:03:52;7.13;;;6.20;;
20731;SDS011;10527;52.124;5.196;2023-06-19T04:06:18;8.05;;;6.80;;
20731;SDS011;10527;52.124;5.196;2023-06-19T04:08:45;7.72;;;6.43;;
20731;SDS011;10527;52.124;5.196;2023-06-19T04:11:12;7.95;;;6.97;;
20731;SDS011;10527;52.124;5.196;2023-06-19T04:13:40;8.68;;;6.65;;
20731;SDS011;10527;52.124;5.196;2023-06-19T04:16:07;8.00;;;6.22;;
20731;SDS011;10527;52.124;5.196;2023-06-19T04:18:35;9.70;;;6.78;;
20731;SDS011;10527;52.124;5.196;2023-06-19T04:21:01;8.38;;;6.40;;
20731;SDS011;10527;52.124;5.196;2023-06-19T04:23:28;7.53;;;6.57;;
20731;SDS011;10527;52.124;5.196;2023-06-19T04:25:55;8.07;;;6.57;;
20731;SDS011;10527;52.124;5.196;2023-06-19T04:28:22;8.35;;;7.15;;
20731;SDS011;10527;52.124;5.196;2023-06-19T04:30:49;9.10;;;7.72;;
20731;SDS011;10527;52.124;5.196;2023-06-19T04:33:16;8.38;;;7.35;;
20731;SDS011;10527;52.124;5.196;2023-06-19T04:35:48;9.40;;;7.32;;
20731;SDS011;10527;52.124;5.196;2023-06-19T04:38:14;10.07;;;7.43;;
20731;SDS011;10527;52.124;5.196;2023-06-19T04:40:41;7.50;;;6.35;;
20731;SDS011;10527;52.124;5.196;2023-06-19T04:43:09;8.15;;;6.35;;
20731;SDS011;10527;52.124;5.196;2023-06-19T04:45:36;8.48;;;5.85;;
20731;SDS011;10527;52.124;5.196;2023-06-19T04:48:03;7.15;;;5.55;;
20731;SDS011;10527;52.124;5.196;2023-06-19T04:50:30;6.13;;;3.95;;
20731;SDS011;10527;52.124;5.196;2023-06-19T04:52:57;5.53;;;3.58;;
20731;SDS011;10527;52.124;5.196;2023-06-19T04:55:24;4.88;;;3.35;;
20731;SDS011;10527;52.124;5.196;2023-06-19T04:57:52;3.17;;;2.20;;
20731;SDS011;10527;52.124;5.196;2023-06-19T05:00:19;2.60;;;1.92;;
20731;SDS011;10527;52.124;5.196;2023-06-19T05:02:49;2.30;;;1.60;;
20731;SDS011;10527;52.124;5.196;2023-06-19T05:05:16;2.10;;;1.33;;
20731;SDS011;10527;52.124;5.196;2023-06-19T05:07:47;1.92;;;1.00;;
20731;SDS011;10527;52.124;5.196;2023-06-19T05:10:14;1.48;;;0.95;;
20731;SDS011;10527;52.124;5.196;2023-06-19T05:12:41;2.92;;;0.90;;
20731;SDS011;10527;52.124;5.196;2023-06-19T05:15:08;1.73;;;1.00;;
20731;SDS011;10527;52.124;5.196;2023-06-19T05:17:36;1.05;;;0.95;;
20731;SDS011;10527;52.124;5.196;2023-06-19T05:20:05;1.73;;;1.08;;
20731;SDS011;10527;52.124;5.196;2023-06-19T05:22:34;3.22;;;1.10;;
20731;SDS011;10527;52.124;5.196;2023-06-19T05:25:02;1.58;;;0.90;;
20731;SDS011;10527;52.124;5.196;2023-06-19T05:27:30;1.80;;;0.90;;
20731;SDS011;10527;52.124;5.196;2023-06-19T05:29:57;1.30;;;1.02;;
20731;SDS011;10527;52.124;5.196;2023-06-19T05:32:23;2.15;;;1.58;;
20731;SDS011;10527;52.124;5.196;2023-06-19T05:34:50;1.92;;;1.30;;
20731;SDS011;10527;52.124;5.196;2023-06-19T05:37:17;2.70;;;1.42;;
20731;SDS011;10527;52.124;5.196;2023-06-19T05:39:45;2.58;;;1.90;;
20731;SDS011;10527;52.124;5.196;2023-06-19T05:42:12;2.00;;;1.65;;
20731;SDS011;10527;52.124;5.196;2023-06-19T05:44:39;3.85;;;2.58;;
20731;SDS011;10527;52.124;5.196;2023-06-19T05:47:06;4.30;;;2.45;;
20731;SDS011;10527;52.124;5.196;2023-06-19T05:49:33;3.92;;;3.35;;
20731;SDS011;10527;52.124;5.196;2023-06-19T05:51:59;5.82;;;3.75;;
20731;SDS011;10527;52.124;5.196;2023-06-19T05:54:27;5.70;;;3.22;;
20731;SDS011;10527;52.124;5.196;2023-06-19T05:56:53;4.03;;;3.28;;
20731;SDS011;10527;52.124;5.196;2023-06-19T05:59:20;8.60;;;3.30;;
20731;SDS011;10527;52.124;5.196;2023-06-19T06:01:47;4.10;;;3.15;;
20731;SDS011;10527;52.124;5.196;2023-06-19T06:04:16;4.10;;;3.10;;
20731;SDS011;10527;52.124;5.196;2023-06-19T06:06:45;4.70;;;3.13;;
20731;SDS011;10527;52.124;5.196;2023-06-19T06:09:12;7.40;;;3.40;;
20731;SDS011;10527;52.124;5.196;2023-06-19T06:11:40;4.15;;;2.95;;
20731;SDS011;10527;52.124;5.196;2023-06-19T06:14:08;4.28;;;2.63;;
20731;SDS011;10527;52.124;5.196;2023-06-19T06:16:38;3.95;;;2.78;;
20731;SDS011;10527;52.124;5.196;2023-06-19T06:19:05;4.15;;;3.20;;
20731;SDS011;10527;52.124;5.196;2023-06-19T06:21:32;3.53;;;3.00;;
20731;SDS011;10527;52.124;5.196;2023-06-19T06:24:00;7.10;;;4.20;;
20731;SDS011;10527;52.124;5.196;2023-06-19T06:26:32;4.10;;;3.55;;
20731;SDS011;10527;52.124;5.196;2023-06-19T06:28:59;4.95;;;3.97;;
20731;SDS011;10527;52.124;5.196;2023-06-19T06:31:26;5.80;;;4.35;;
20731;SDS011;10527;52.124;5.196;2023-06-19T06:33:54;5.78;;;4.60;;
20731;SDS011;10527;52.124;5.196;2023-06-19T06:36:20;5.88;;;4.47;;
20731;SDS011;10527;52.124;5.196;2023-06-19T06:39:01;7.03;;;5.10;;
20731;SDS011;10527;52.124;5.196;2023-06-19T06:41:28;7.38;;;5.32;;
20731;SDS011;10527;52.124;5.196;2023-06-19T06:43:55;7.95;;;5.90;;
20731;SDS011;10527;52.124;5.196;2023-06-19T06:46:22;5.65;;;4.68;;
20731;SDS011;10527;52.124;5.196;2023-06-19T06:48:49;7.35;;;5.15;;
20731;SDS011;10527;52.124;5.196;2023-06-19T06:51:16;8.00;;;6.43;;
20731;SDS011;10527;52.124;5.196;2023-06-19T06:53:43;8.63;;;6.32;;
20731;SDS011;10527;52.124;5.196;2023-06-19T06:56:12;8.30;;;7.18;;
20731;SDS011;10527;52.124;5.196;2023-06-19T06:58:39;8.35;;;6.20;;
20731;SDS011;10527;52.124;5.196;2023-06-19T07:01:06;11.32;;;6.90;;
20731;SDS011;10527;52.124;5.196;2023-06-19T07:03:33;8.98;;;7.72;;
20731;SDS011;10527;52.124;5.196;2023-06-19T07:06:01;8.93;;;7.40;;
20731;SDS011;10527;52.124;5.196;2023-06-19T07:08:29;8.02;;;7.22;;
20731;SDS011;10527;52.124;5.196;2023-06-19T07:10:56;11.68;;;7.82;;
20731;SDS011;10527;52.124;5.196;2023-06-19T07:13:23;10.23;;;8.32;;
20731;SDS011;10527;52.124;5.196;2023-06-19T07:15:52;8.05;;;7.25;;
20731;SDS011;10527;52.124;5.196;2023-06-19T07:18:19;9.27;;;7.20;;
20731;SDS011;10527;52.124;5.196;2023-06-19T07:20:46;7.95;;;6.97;;
20731;SDS011;10527;52.124;5.196;2023-06-19T07:23:13;10.95;;;7.95;;
20731;SDS011;10527;52.124;5.196;2023-06-19T07:25:40;8.82;;;7.38;;
20731;SDS011;10527;52.124;5.196;2023-06-19T07:28:07;8.05;;;6.68;;
20731;SDS011;10527;52.124;5.196;2023-06-19T07:30:34;10.25;;;7.53;;
20731;SDS011;10527;52.124;5.196;2023-06-19T07:33:01;9.80;;;7.65;;
20731;SDS011;10527;52.124;5.196;2023-06-19T07:35:28;9.85;;;7.53;;
20731;SDS011;10527;52.124;5.196;2023-06-19T07:37:55;12.38;;;7.80;;
20731;SDS011;10527;52.124;5.196;2023-06-19T07:40:21;9.73;;;7.78;;
20731;SDS011;10527;52.124;5.196;2023-06-19T07:42:49;10.05;;;8.10;;
20731;SDS011;10527;52.124;5.196;2023-06-19T07:45:16;10.43;;;7.68;;
20731;SDS011;10527;52.124;5.196;2023-06-19T07:47:43;9.68;;;8.10;;
20731;SDS011;10527;52.124;5.196;2023-06-19T07:50:10;10.38;;;8.40;;
20731;SDS011;10527;52.124;5.196;2023-06-19T07:52:37;11.20;;;9.25;;
20731;SDS011;10527;52.124;5.196;2023-06-19T07:55:04;9.82;;;8.60;;
20731;SDS011;10527;52.124;5.196;2023-06-19T07:57:31;13.35;;;9.63;;
20731;SDS011;10527;52.124;5.196;2023-06-19T07:59:58;12.15;;;9.98;;
20731;SDS011;10527;52.124;5.196;2023-06-19T08:02:25;12.23;;;10.02;;
20731;SDS011;10527;52.124;5.196;2023-06-19T08:04:53;12.68;;;9.10;;
20731;SDS011;10527;52.124;5.196;2023-06-19T08:07:20;10.52;;;9.43;;
20731;SDS011;10527;52.124;5.196;2023-06-19T08:09:47;10.73;;;9.18;;
20731;SDS011;10527;52.124;5.196;2023-06-19T08:12:29;9.77;;;8.70;;
20731;SDS011;10527;52.124;5.196;2023-06-19T08:14:56;11.18;;;9.50;;
20731;SDS011;10527;52.124;5.196;2023-06-19T08:17:23;13.48;;;10.18;;
20731;SDS011;10527;52.124;5.196;2023-06-19T08:19:50;12.02;;;9.98;;
20731;SDS011;10527;52.124;5.196;2023-06-19T08:22:17;13.35;;;11.02;;
20731;SDS011;10527;52.124;5.196;2023-06-19T08:24:44;13.57;;;11.02;;
20731;SDS011;10527;52.124;5.196;2023-06-19T08:27:11;11.40;;;10.23;;
20731;SDS011;10527;52.124;5.196;2023-06-19T08:29:38;14.05;;;10.73;;
20731;SDS011;10527;52.124;5.196;2023-06-19T08:32:05;13.05;;;10.75;;
20731;SDS011;10527;52.124;5.196;2023-06-19T08:34:36;12.75;;;10.82;;
20731;SDS011;10527;52.124;5.196;2023-06-19T08:37:05;13.23;;;10.55;;
20731;SDS011;10527;52.124;5.196;2023-06-19T08:39:33;12.25;;;10.95;;
20731;SDS011;10527;52.124;5.196;2023-06-19T08:42:07;15.07;;;10.00;;
20731;SDS011;10527;52.124;5.196;2023-06-19T08:44:51;11.73;;;10.38;;
20731;SDS011;10527;52.124;5.196;2023-06-19T08:47:17;11.95;;;9.95;;
20731;SDS011;10527;52.124;5.196;2023-06-19T08:49:44;12.43;;;10.43;;
20731;SDS011;10527;52.124;5.196;2023-06-19T08:52:12;16.33;;;11.80;;
20731;SDS011;10527;52.124;5.196;2023-06-19T08:54:39;12.55;;;11.18;;
20731;SDS011;10527;52.124;5.196;2023-06-19T08:57:10;13.20;;;10.75;;
20731;SDS011;10527;52.124;5.196;2023-06-19T08:59:47;12.07;;;10.35;;
20731;SDS011;10527;52.124;5.196;2023-06-19T09:02:16;12.95;;;10.60;;
20731;SDS011;10527;52.124;5.196;2023-06-19T09:04:43;14.10;;;11.30;;
20731;SDS011;10527;52.124;5.196;2023-06-19T09:07:12;13.45;;;10.57;;
20731;SDS011;10527;52.124;5.196;2023-06-19T09:09:44;13.93;;;11.45;;
20731;SDS011;10527;52.124;5.196;2023-06-19T09:12:14;13.50;;;11.90;;
20731;SDS011;10527;52.124;5.196;2023-06-19T09:14:43;14.88;;;12.80;;
20731;SDS011;10527;52.124;5.196;2023-06-19T09:17:20;12.85;;;11.55;;
20731;SDS011;10527;52.124;5.196;2023-06-19T09:19:48;13.43;;;11.63;;
20731;SDS011;10527;52.124;5.196;2023-06-19T09:22:17;14.45;;;12.27;;
20731;SDS011;10527;52.124;5.196;2023-06-19T09:24:48;17.38;;;13.18;;
20731;SDS011;10527;52.124;5.196;2023-06-19T09:27:18;14.57;;;12.30;;
20731;SDS011;10527;52.124;5.196;2023-06-19T09:29:47;14.52;;;11.85;;
20731;SDS011;10527;52.124;5.196;2023-06-19T09:32:23;12.98;;;11.20;;
20731;SDS011;10527;52.124;5.196;2023-06-19T09:34:57;14.05;;;12.00;;
20731;SDS011;10527;52.124;5.196;2023-06-19T09:37:30;16.00;;;12.35;;
20731;SDS011;10527;52.124;5.196;2023-06-19T09:40:15;15.02;;;12.35;;
20731;SDS011;10527;52.124;5.196;2023-06-19T09:42:42;14.93;;;12.73;;
20731;SDS011;10527;52.124;5.196;2023-06-19T09:45:10;12.40;;;10.90;;
20731;SDS011;10527;52.124;5.196;2023-06-19T09:47:46;16.13;;;11.27;;
20731;SDS011;10527;52.124;5.196;2023-06-19T09:50:17;13.27;;;11.88;;
20731;SDS011;10527;52.124;5.196;2023-06-19T09:52:44;13.10;;;11.70;;
20731;SDS011;10527;52.124;5.196;2023-06-19T09:55:12;14.35;;;12.23;;
20731;SDS011;10527;52.124;5.196;2023-06-19T09:57:39;13.50;;;11.38;;
20731;SDS011;10527;52.124;5.196;2023-06-19T10:00:09;13.20;;;11.00;;
20731;SDS011;10527;52.124;5.196;2023-06-19T10:03:03;12.55;;;10.82;;
20731;SDS011;10527;52.124;5.196;2023-06-19T10:05:37;13.40;;;11.68;;
20731;SDS011;10527;52.124;5.196;2023-06-19T10:08:04;14.07;;;11.93;;
20731;SDS011;10527;52.124;5.196;2023-06-19T10:10:32;14.30;;;11.95;;
20731;SDS011;10527;52.124;5.196;2023-06-19T10:13:13;15.68;;;13.55;;
20731;SDS011;10527;52.124;5.196;2023-06-19T10:15:42;14.35;;;11.57;;
20731;SDS011;10527;52.124;5.196;2023-06-19T10:18:14;14.38;;;12.60;;
20731;SDS011;10527;52.124;5.196;2023-06-19T10:20:47;16.92;;;13.98;;
20731;SDS011;10527;52.124;5.196;2023-06-19T10:23:18;15.75;;;13.45;;
20731;SDS011;10527;52.124;5.196;2023-06-19T10:28:31;14.18;;;12.73;;
20731;SDS011;10527;52.124;5.196;2023-06-19T10:31:03;12.45;;;11.07;;
20731;SDS011;10527;52.124;5.196;2023-06-19T10:33:35;13.30;;;11.90;;
20731;SDS011;10527;52.124;5.196;2023-06-19T10:36:13;15.48;;;13.05;;
20731;SDS011;10527;52.124;5.196;2023-06-19T10:38:46;12.85;;;11.23;;
20731;SDS011;10527;52.124;5.196;2023-06-19T10:41:17;13.15;;;10.93;;
20731;SDS011;10527;52.124;5.196;2023-06-19T10:43:56;13.65;;;11.88;;
20731;SDS011;10527;52.124;5.196;2023-06-19T10:46:31;13.25;;;11.75;;
20731;SDS011;10527;52.124;5.196;2023-06-19T10:49:05;12.70;;;11.27;;
20731;SDS011;10527;52.124;5.196;2023-06-19T10:51:39;14.07;;;10.88;;
20731;SDS011;10527;52.124;5.196;2023-06-19T10:54:10;12.95;;;11.52;;
20731;SDS011;10527;52.124;5.196;2023-06-19T10:56:37;14.60;;;10.88;;
20731;SDS011;10527;52.124;5.196;2023-06-19T10:59:04;11.95;;;10.68;;
20731;SDS011;10527;52.124;5.196;2023-06-19T11:01:38;13.52;;;11.65;;
20731;SDS011;10527;52.124;5.196;2023-06-19T11:04:13;12.45;;;10.63;;
20731;SDS011;10527;52.124;5.196;2023-06-19T11:06:42;11.52;;;10.13;;
20731;SDS011;10527;52.124;5.196;2023-06-19T11:09:11;11.25;;;9.77;;
20731;SDS011;10527;52.124;5.196;2023-06-19T11:14:11;13.02;;;11.57;;
20731;SDS011;10527;52.124;5.196;2023-06-19T11:16:44;13.65;;;12.10;;
20731;SDS011;10527;52.124;5.196;2023-06-19T11:19:17;9.82;;;8.82;;
20731;SDS011;10527;52.124;5.196;2023-06-19T11:21:47;10.30;;;8.82;;
20731;SDS011;10527;52.124;5.196;2023-06-19T11:24:17;11.35;;;8.85;;
20731;SDS011;10527;52.124;5.196;2023-06-19T11:26:46;11.38;;;9.57;;
20731;SDS011;10527;52.124;5.196;2023-06-19T11:29:31;10.50;;;9.25;;
20731;SDS011;10527;52.124;5.196;2023-06-19T11:32:14;10.25;;;8.88;;
20731;SDS011;10527;52.124;5.196;2023-06-19T11:34:43;13.57;;;10.63;;
20731;SDS011;10527;52.124;5.196;2023-06-19T11:37:17;10.30;;;9.32;;
20731;SDS011;10527;52.124;5.196;2023-06-19T11:39:45;10.65;;;9.55;;
20731;SDS011;10527;52.124;5.196;2023-06-19T11:42:14;11.65;;;9.15;;
20731;SDS011;10527;52.124;5.196;2023-06-19T11:45:20;13.75;;;10.73;;
20731;SDS011;10527;52.124;5.196;2023-06-19T11:47:38;10.00;;;8.30;;
20731;SDS011;10527;52.124;5.196;2023-06-19T11:50:05;11.40;;;9.63;;
20731;SDS011;10527;52.124;5.196;2023-06-19T11:52:33;9.60;;;8.55;;
20731;SDS011;10527;52.124;5.196;2023-06-19T11:55:02;12.95;;;9.00;;
20731;SDS011;10527;52.124;5.196;2023-06-19T11:57:29;10.27;;;8.60;;
20731;SDS011;10527;52.124;5.196;2023-06-19T11:59:56;11.15;;;8.20;;
20731;SDS011;10527;52.124;5.196;2023-06-19T12:02:23;10.32;;;8.80;;
20731;SDS011;10527;52.124;5.196;2023-06-19T12:04:50;10.43;;;8.63;;
20731;SDS011;10527;52.124;5.196;2023-06-19T12:07:18;8.95;;;8.05;;
20731;SDS011;10527;52.124;5.196;2023-06-19T12:09:46;9.80;;;8.32;;
20731;SDS011;10527;52.124;5.196;2023-06-19T12:12:12;10.82;;;8.25;;
20731;SDS011;10527;52.124;5.196;2023-06-19T12:14:39;8.30;;;7.38;;
20731;SDS011;10527;52.124;5.196;2023-06-19T12:17:06;10.60;;;7.60;;
20731;SDS011;10527;52.124;5.196;2023-06-19T12:19:33;9.60;;;8.00;;
20731;SDS011;10527;52.124;5.196;2023-06-19T12:22:00;8.73;;;7.78;;
20731;SDS011;10527;52.124;5.196;2023-06-19T12:24:27;9.68;;;8.50;;
20731;SDS011;10527;52.124;5.196;2023-06-19T12:26:54;10.10;;;8.57;;
20731;SDS011;10527;52.124;5.196;2023-06-19T12:29:21;8.77;;;7.80;;
20731;SDS011;10527;52.124;5.196;2023-06-19T12:31:48;8.88;;;7.80;;
20731;SDS011;10527;52.124;5.196;2023-06-19T12:34:15;12.85;;;8.25;;
20731;SDS011;10527;52.124;5.196;2023-06-19T12:36:56;8.68;;;7.68;;
20731;SDS011;10527;52.124;5.196;2023-06-19T12:39:23;8.82;;;7.53;;
20731;SDS011;10527;52.124;5.196;2023-06-19T12:41:53;7.60;;;6.80;;
20731;SDS011;10527;52.124;5.196;2023-06-19T12:44:21;8.27;;;7.20;;
20731;SDS011;10527;52.124;5.196;2023-06-19T12:46:48;7.93;;;7.15;;
20731;SDS011;10527;52.124;5.196;2023-06-19T12:49:15;10.38;;;8.77;;
20731;SDS011;10527;52.124;5.196;2023-06-19T12:51:42;8.27;;;7.47;;
20731;SDS011;10527;52.124;5.196;2023-06-19T12:54:09;8.05;;;6.85;;
20731;SDS011;10527;52.124;5.196;2023-06-19T12:56:36;8.82;;;7.53;;
20731;SDS011;10527;52.124;5.196;2023-06-19T12:59:03;8.38;;;7.35;;
20731;SDS011;10527;52.124;5.196;2023-06-19T13:01:30;6.97;;;6.28;;
20731;SDS011;10527;52.124;5.196;2023-06-19T13:03:57;10.05;;;7.15;;
20731;SDS011;10527;52.124;5.196;2023-06-19T13:06:24;7.35;;;6.60;;
20731;SDS011;10527;52.124;5.196;2023-06-19T13:08:53;9.07;;;6.70;;
20731;SDS011;10527;52.124;5.196;2023-06-19T13:11:20;8.20;;;6.65;;
20731;SDS011;10527;52.124;5.196;2023-06-19T13:13:47;7.22;;;6.30;;
20731;SDS011;10527;52.124;5.196;2023-06-19T13:16:14;10.13;;;7.13;;
20731;SDS011;10527;52.124;5.196;2023-06-19T13:18:42;10.18;;;6.50;;
20731;SDS011;10527;52.124;5.196;2023-06-19T13:21:17;8.90;;;7.22;;
20731;SDS011;10527;52.124;5.196;2023-06-19T13:23:45;10.75;;;7.50;;
20731;SDS011;10527;52.124;5.196;2023-06-19T13:26:12;9.45;;;7.35;;
20731;SDS011;10527;52.124;5.196;2023-06-19T13:28:38;10.18;;;8.05;;
20731;SDS011;10527;52.124;5.196;2023-06-19T13:31:05;8.93;;;6.93;;
20731;SDS011;10527;52.124;5.196;2023-06-19T13:33:32;10.02;;;7.22;;
20731;SDS011;10527;52.124;5.196;2023-06-19T13:35:59;9.15;;;7.97;;
20731;SDS011;10527;52.124;5.196;2023-06-19T13:38:26;8.80;;;7.28;;
20731;SDS011;10527;52.124;5.196;2023-06-19T13:40:53;8.15;;;6.70;;
20731;SDS011;10527;52.124;5.196;2023-06-19T13:43:19;8.55;;;7.20;;
20731;SDS011;10527;52.124;5.196;2023-06-19T13:45:49;7.97;;;6.40;;
20731;SDS011;10527;52.124;5.196;2023-06-19T13:48:16;7.65;;;6.85;;
20731;SDS011;10527;52.124;5.196;2023-06-19T13:50:43;7.68;;;6.47;;
20731;SDS011;10527;52.124;5.196;2023-06-19T13:53:10;7.20;;;6.50;;
20731;SDS011;10527;52.124;5.196;2023-06-19T13:55:37;9.10;;;6.88;;
20731;SDS011;10527;52.124;5.196;2023-06-19T13:58:04;8.52;;;7.60;;
20731;SDS011;10527;52.124;5.196;2023-06-19T14:00:31;12.07;;;6.63;;
20731;SDS011;10527;52.124;5.196;2023-06-19T14:02:58;9.38;;;8.38;;
20731;SDS011;10527;52.124;5.196;2023-06-19T14:05:25;8.45;;;7.18;;
20731;SDS011;10527;52.124;5.196;2023-06-19T14:07:53;10.30;;;8.27;;
20731;SDS011;10527;52.124;5.196;2023-06-19T14:10:21;9.43;;;7.05;;
20731;SDS011;10527;52.124;5.196;2023-06-19T14:12:48;8.32;;;7.15;;
20731;SDS011;10527;52.124;5.196;2023-06-19T14:15:15;8.35;;;7.30;;
20731;SDS011;10527;52.124;5.196;2023-06-19T14:17:42;8.75;;;7.85;;
20731;SDS011;10527;52.124;5.196;2023-06-19T14:20:10;10.85;;;8.20;;
20731;SDS011;10527;52.124;5.196;2023-06-19T14:22:37;9.00;;;7.78;;
20731;SDS011;10527;52.124;5.196;2023-06-19T14:25:04;9.57;;;7.75;;
20731;SDS011;10527;52.124;5.196;2023-06-19T14:27:32;7.95;;;6.70;;
20731;SDS011;10527;52.124;5.196;2023-06-19T14:30:00;6.05;;;5.38;;
20731;SDS011;10527;52.124;5.196;2023-06-19T14:32:27;6.68;;;5.22;;
20731;SDS011;10527;52.124;5.196;2023-06-19T14:34:54;6.32;;;5.50;;
20731;SDS011;10527;52.124;5.196;2023-06-19T14:37:21;6.60;;;5.70;;
20731;SDS011;10527;52.124;5.196;2023-06-19T14:39:48;7.57;;;5.82;;
20731;SDS011;10527;52.124;5.196;2023-06-19T14:42:15;10.55;;;6.53;;
20731;SDS011;10527;52.124;5.196;2023-06-19T14:44:41;7.18;;;5.93;;
20731;SDS011;10527;52.124;5.196;2023-06-19T14:47:08;8.10;;;6.63;;
20731;SDS011;10527;52.124;5.196;2023-06-19T14:49:35;7.97;;;5.88;;
20731;SDS011;10527;52.124;5.196;2023-06-19T14:52:02;5.88;;;5.28;;
20731;SDS011;10527;52.124;5.196;2023-06-19T14:54:29;6.50;;;5.22;;
20731;SDS011;10527;52.124;5.196;2023-06-19T14:56:56;6.80;;;5.30;;
20731;SDS011;10527;52.124;5.196;2023-06-19T14:59:23;7.30;;;5.47;;